sensor_id;sensor_type;location;lat;lon;timestamp;P1;durP1;ratioP1;P2;durP2;ratioP2
10144;SDS011;5113;41.822;23.564;2023-10-19T00:00:18;8.30;;;5.77;;
10144;SDS011;5113;41.822;23.564;2023-10-19T00:03:25;7.90;;;6.10;;
10144;SDS011;5113;41.822;23.564;2023-10-19T00:06:32;6.73;;;5.40;;
10144;SDS011;5113;41.822;23.564;2023-10-19T00:09:39;7.20;;;5.90;;
10144;SDS011;5113;41.822;23.564;2023-10-19T00:12:51;5.43;;;5.03;;
10144;SDS011;5113;41.822;23.564;2023-10-19T00:16:04;7.27;;;5.27;;
10144;SDS011;5113;41.822;23.564;2023-10-19T00:19:17;6.10;;;5.07;;
10144;SDS011;5113;41.822;23.564;2023-10-19T00:22:24;6.30;;;5.63;;
10144;SDS011;5113;41.822;23.564;2023-10-19T00:25:30;5.63;;;5.13;;
10144;SDS011;5113;41.822;23.564;2023-10-19T00:28:40;5.47;;;5.03;;
10144;SDS011;5113;41.822;23.564;2023-10-19T00:31:50;10.17;;;5.40;;
10144;SDS011;5113;41.822;23.564;2023-10-19T00:34:57;6.00;;;4.77;;
10144;SDS011;5113;41.822;23.564;2023-10-19T00:38:12;4.73;;;4.30;;
10144;SDS011;5113;41.822;23.564;2023-10-19T00:41:32;5.27;;;4.33;;
10144;SDS011;5113;41.822;23.564;2023-10-19T00:44:40;4.50;;;4.10;;
10144;SDS011;5113;41.822;23.564;2023-10-19T00:47:47;4.97;;;4.57;;
10144;SDS011;5113;41.822;23.564;2023-10-19T00:50:57;5.67;;;5.13;;
10144;SDS011;5113;41.822;23.564;2023-10-19T00:54:15;9.23;;;6.80;;
10144;SDS011;5113;41.822;23.564;2023-10-19T00:57:31;7.27;;;5.57;;
10144;SDS011;5113;41.822;23.564;2023-10-19T01:00:40;6.47;;;5.63;;
10144;SDS011;5113;41.822;23.564;2023-10-19T01:03:49;8.77;;;5.73;;
10144;SDS011;5113;41.822;23.564;2023-10-19T01:07:01;5.37;;;4.57;;
10144;SDS011;5113;41.822;23.564;2023-10-19T01:10:10;6.40;;;4.57;;
10144;SDS011;5113;41.822;23.564;2023-10-19T01:13:17;6.00;;;5.20;;
10144;SDS011;5113;41.822;23.564;2023-10-19T01:16:33;5.67;;;4.43;;
10144;SDS011;5113;41.822;23.564;2023-10-19T01:19:40;4.80;;;4.40;;
10144;SDS011;5113;41.822;23.564;2023-10-19T01:22:58;4.53;;;4.13;;
10144;SDS011;5113;41.822;23.564;2023-10-19T01:26:17;4.03;;;3.70;;
10144;SDS011;5113;41.822;23.564;2023-10-19T01:29:26;6.80;;;4.17;;
10144;SDS011;5113;41.822;23.564;2023-10-19T01:32:33;7.07;;;4.33;;
10144;SDS011;5113;41.822;23.564;2023-10-19T01:35:40;5.90;;;4.53;;
10144;SDS011;5113;41.822;23.564;2023-10-19T01:39:05;4.50;;;4.10;;
10144;SDS011;5113;41.822;23.564;2023-10-19T01:42:15;6.87;;;5.37;;
10144;SDS011;5113;41.822;23.564;2023-10-19T01:45:22;6.27;;;5.30;;
10144;SDS011;5113;41.822;23.564;2023-10-19T01:48:28;4.77;;;4.03;;
10144;SDS011;5113;41.822;23.564;2023-10-19T01:51:37;5.13;;;4.60;;
10144;SDS011;5113;41.822;23.564;2023-10-19T01:54:45;5.07;;;4.67;;
10144;SDS011;5113;41.822;23.564;2023-10-19T01:57:52;4.27;;;3.80;;
10144;SDS011;5113;41.822;23.564;2023-10-19T02:00:57;4.20;;;3.90;;
10144;SDS011;5113;41.822;23.564;2023-10-19T02:04:06;5.63;;;4.57;;
10144;SDS011;5113;41.822;23.564;2023-10-19T02:07:13;5.80;;;4.60;;
10144;SDS011;5113;41.822;23.564;2023-10-19T02:10:24;4.60;;;3.60;;
10144;SDS011;5113;41.822;23.564;2023-10-19T02:13:32;8.27;;;4.30;;
10144;SDS011;5113;41.822;23.564;2023-10-19T02:16:40;6.73;;;4.03;;
10144;SDS011;5113;41.822;23.564;2023-10-19T02:19:48;14.33;;;4.63;;
10144;SDS011;5113;41.822;23.564;2023-10-19T02:22:53;8.33;;;4.17;;
10144;SDS011;5113;41.822;23.564;2023-10-19T02:26:03;3.53;;;3.23;;
10144;SDS011;5113;41.822;23.564;2023-10-19T02:29:09;4.57;;;3.60;;
10144;SDS011;5113;41.822;23.564;2023-10-19T02:32:17;9.43;;;3.87;;
10144;SDS011;5113;41.822;23.564;2023-10-19T02:35:23;4.47;;;4.07;;
10144;SDS011;5113;41.822;23.564;2023-10-19T02:38:29;3.77;;;3.47;;
10144;SDS011;5113;41.822;23.564;2023-10-19T02:41:38;3.93;;;3.63;;
10144;SDS011;5113;41.822;23.564;2023-10-19T02:44:45;4.93;;;4.30;;
10144;SDS011;5113;41.822;23.564;2023-10-19T02:47:55;3.63;;;3.27;;
10144;SDS011;5113;41.822;23.564;2023-10-19T02:51:01;18.63;;;9.30;;
10144;SDS011;5113;41.822;23.564;2023-10-19T02:54:17;21.23;;;15.07;;
10144;SDS011;5113;41.822;23.564;2023-10-19T02:57:26;16.17;;;9.33;;
10144;SDS011;5113;41.822;23.564;2023-10-19T03:00:36;10.70;;;8.27;;
10144;SDS011;5113;41.822;23.564;2023-10-19T03:03:44;21.27;;;11.70;;
10144;SDS011;5113;41.822;23.564;2023-10-19T03:06:50;10.53;;;7.93;;
10144;SDS011;5113;41.822;23.564;2023-10-19T03:09:57;7.77;;;7.00;;
10144;SDS011;5113;41.822;23.564;2023-10-19T03:13:07;14.77;;;9.27;;
10144;SDS011;5113;41.822;23.564;2023-10-19T03:16:14;7.87;;;6.60;;
10144;SDS011;5113;41.822;23.564;2023-10-19T03:19:20;5.90;;;4.93;;
10144;SDS011;5113;41.822;23.564;2023-10-19T03:22:27;8.50;;;6.80;;
10144;SDS011;5113;41.822;23.564;2023-10-19T03:25:35;15.43;;;7.97;;
10144;SDS011;5113;41.822;23.564;2023-10-19T03:28:55;12.00;;;7.00;;
10144;SDS011;5113;41.822;23.564;2023-10-19T03:32:05;7.43;;;6.73;;
10144;SDS011;5113;41.822;23.564;2023-10-19T03:35:12;9.20;;;6.93;;
10144;SDS011;5113;41.822;23.564;2023-10-19T03:38:20;8.60;;;7.23;;
10144;SDS011;5113;41.822;23.564;2023-10-19T03:41:27;9.37;;;7.73;;
10144;SDS011;5113;41.822;23.564;2023-10-19T03:44:37;10.23;;;8.83;;
10144;SDS011;5113;41.822;23.564;2023-10-19T03:47:50;32.73;;;18.43;;
10144;SDS011;5113;41.822;23.564;2023-10-19T03:51:00;29.00;;;14.60;;
10144;SDS011;5113;41.822;23.564;2023-10-19T03:54:08;27.37;;;16.50;;
10144;SDS011;5113;41.822;23.564;2023-10-19T03:57:27;33.87;;;21.63;;
10144;SDS011;5113;41.822;23.564;2023-10-19T04:00:36;20.73;;;14.07;;
10144;SDS011;5113;41.822;23.564;2023-10-19T04:03:43;14.13;;;10.43;;
10144;SDS011;5113;41.822;23.564;2023-10-19T04:06:50;19.37;;;12.03;;
10144;SDS011;5113;41.822;23.564;2023-10-19T04:10:02;18.33;;;9.77;;
10144;SDS011;5113;41.822;23.564;2023-10-19T04:13:34;14.10;;;9.70;;
10144;SDS011;5113;41.822;23.564;2023-10-19T04:16:43;10.37;;;8.50;;
10144;SDS011;5113;41.822;23.564;2023-10-19T04:19:52;13.93;;;10.27;;
10144;SDS011;5113;41.822;23.564;2023-10-19T04:23:00;9.67;;;7.67;;
10144;SDS011;5113;41.822;23.564;2023-10-19T04:26:20;22.90;;;14.30;;
10144;SDS011;5113;41.822;23.564;2023-10-19T04:29:27;30.10;;;14.83;;
10144;SDS011;5113;41.822;23.564;2023-10-19T04:32:35;15.23;;;10.60;;
10144;SDS011;5113;41.822;23.564;2023-10-19T04:35:46;15.93;;;10.53;;
10144;SDS011;5113;41.822;23.564;2023-10-19T04:39:00;27.00;;;16.80;;
10144;SDS011;5113;41.822;23.564;2023-10-19T04:42:09;25.10;;;15.23;;
10144;SDS011;5113;41.822;23.564;2023-10-19T04:45:19;40.57;;;22.07;;
10144;SDS011;5113;41.822;23.564;2023-10-19T04:48:32;25.73;;;15.57;;
10144;SDS011;5113;41.822;23.564;2023-10-19T04:51:40;21.43;;;13.00;;
10144;SDS011;5113;41.822;23.564;2023-10-19T04:54:48;30.73;;;21.10;;
10144;SDS011;5113;41.822;23.564;2023-10-19T04:57:57;26.73;;;20.43;;
10144;SDS011;5113;41.822;23.564;2023-10-19T05:01:04;35.23;;;21.63;;
10144;SDS011;5113;41.822;23.564;2023-10-19T05:04:12;28.93;;;16.63;;
10144;SDS011;5113;41.822;23.564;2023-10-19T05:07:19;21.63;;;14.87;;
10144;SDS011;5113;41.822;23.564;2023-10-19T05:10:25;25.80;;;16.87;;
10144;SDS011;5113;41.822;23.564;2023-10-19T05:13:35;30.03;;;18.80;;
10144;SDS011;5113;41.822;23.564;2023-10-19T05:16:42;33.07;;;20.07;;
10144;SDS011;5113;41.822;23.564;2023-10-19T05:19:50;36.60;;;20.67;;
10144;SDS011;5113;41.822;23.564;2023-10-19T05:22:57;12.93;;;9.27;;
10144;SDS011;5113;41.822;23.564;2023-10-19T05:26:05;7.70;;;6.43;;
10144;SDS011;5113;41.822;23.564;2023-10-19T05:29:12;23.00;;;13.20;;
10144;SDS011;5113;41.822;23.564;2023-10-19T05:32:19;60.80;;;32.60;;
10144;SDS011;5113;41.822;23.564;2023-10-19T05:35:28;21.20;;;16.77;;
10144;SDS011;5113;41.822;23.564;2023-10-19T05:38:34;26.70;;;15.93;;
10144;SDS011;5113;41.822;23.564;2023-10-19T05:41:41;28.37;;;16.27;;
10144;SDS011;5113;41.822;23.564;2023-10-19T05:44:48;18.77;;;12.13;;
10144;SDS011;5113;41.822;23.564;2023-10-19T05:47:55;19.73;;;11.97;;
10144;SDS011;5113;41.822;23.564;2023-10-19T05:51:04;36.70;;;18.07;;
10144;SDS011;5113;41.822;23.564;2023-10-19T05:54:11;35.87;;;19.03;;
10144;SDS011;5113;41.822;23.564;2023-10-19T05:57:18;26.37;;;14.20;;
10144;SDS011;5113;41.822;23.564;2023-10-19T06:00:24;41.57;;;25.27;;
10144;SDS011;5113;41.822;23.564;2023-10-19T06:03:31;39.23;;;24.93;;
10144;SDS011;5113;41.822;23.564;2023-10-19T06:06:39;44.87;;;27.90;;
10144;SDS011;5113;41.822;23.564;2023-10-19T06:09:46;43.83;;;28.40;;
10144;SDS011;5113;41.822;23.564;2023-10-19T06:12:52;196.87;;;81.07;;
10144;SDS011;5113;41.822;23.564;2023-10-19T06:15:59;30.70;;;18.07;;
10144;SDS011;5113;41.822;23.564;2023-10-19T06:19:06;14.43;;;10.03;;
10144;SDS011;5113;41.822;23.564;2023-10-19T06:22:15;9.10;;;7.00;;
10144;SDS011;5113;41.822;23.564;2023-10-19T06:25:22;9.33;;;7.37;;
10144;SDS011;5113;41.822;23.564;2023-10-19T06:28:30;10.10;;;7.37;;
10144;SDS011;5113;41.822;23.564;2023-10-19T06:31:43;10.37;;;6.97;;
10144;SDS011;5113;41.822;23.564;2023-10-19T06:34:50;8.80;;;7.07;;
10144;SDS011;5113;41.822;23.564;2023-10-19T06:37:58;27.73;;;16.77;;
10144;SDS011;5113;41.822;23.564;2023-10-19T06:41:11;16.17;;;12.27;;
10144;SDS011;5113;41.822;23.564;2023-10-19T06:44:18;19.77;;;14.17;;
10144;SDS011;5113;41.822;23.564;2023-10-19T06:47:26;20.77;;;13.90;;
10144;SDS011;5113;41.822;23.564;2023-10-19T06:50:34;70.73;;;34.53;;
10144;SDS011;5113;41.822;23.564;2023-10-19T06:53:42;42.27;;;25.47;;
10144;SDS011;5113;41.822;23.564;2023-10-19T06:56:50;48.07;;;24.03;;
10144;SDS011;5113;41.822;23.564;2023-10-19T06:59:56;62.23;;;30.57;;
10144;SDS011;5113;41.822;23.564;2023-10-19T07:03:03;29.00;;;19.53;;
10144;SDS011;5113;41.822;23.564;2023-10-19T07:06:11;28.40;;;18.33;;
10144;SDS011;5113;41.822;23.564;2023-10-19T07:09:20;19.13;;;12.97;;
10144;SDS011;5113;41.822;23.564;2023-10-19T07:12:27;21.87;;;11.50;;
10144;SDS011;5113;41.822;23.564;2023-10-19T07:15:33;46.47;;;19.37;;
10144;SDS011;5113;41.822;23.564;2023-10-19T07:18:40;26.80;;;15.60;;
10144;SDS011;5113;41.822;23.564;2023-10-19T07:21:46;21.10;;;12.37;;
10144;SDS011;5113;41.822;23.564;2023-10-19T07:25:03;17.23;;;13.03;;
10144;SDS011;5113;41.822;23.564;2023-10-19T07:28:11;18.47;;;10.20;;
10144;SDS011;5113;41.822;23.564;2023-10-19T07:31:19;18.27;;;11.80;;
10144;SDS011;5113;41.822;23.564;2023-10-19T07:34:26;15.97;;;11.93;;
10144;SDS011;5113;41.822;23.564;2023-10-19T07:37:34;12.30;;;9.03;;
10144;SDS011;5113;41.822;23.564;2023-10-19T07:40:42;9.90;;;7.57;;
10144;SDS011;5113;41.822;23.564;2023-10-19T07:43:49;11.87;;;5.83;;
10144;SDS011;5113;41.822;23.564;2023-10-19T07:46:56;11.67;;;7.37;;
10144;SDS011;5113;41.822;23.564;2023-10-19T07:50:03;8.90;;;6.53;;
10144;SDS011;5113;41.822;23.564;2023-10-19T07:53:11;10.07;;;7.17;;
10144;SDS011;5113;41.822;23.564;2023-10-19T07:56:19;24.53;;;14.40;;
10144;SDS011;5113;41.822;23.564;2023-10-19T07:59:25;15.73;;;11.60;;
10144;SDS011;5113;41.822;23.564;2023-10-19T08:02:32;18.23;;;10.60;;
10144;SDS011;5113;41.822;23.564;2023-10-19T08:05:38;19.33;;;10.10;;
10144;SDS011;5113;41.822;23.564;2023-10-19T08:08:45;12.50;;;9.00;;
10144;SDS011;5113;41.822;23.564;2023-10-19T08:11:53;7.83;;;6.07;;
10144;SDS011;5113;41.822;23.564;2023-10-19T08:15:03;6.73;;;4.93;;
10144;SDS011;5113;41.822;23.564;2023-10-19T08:18:11;5.50;;;4.20;;
10144;SDS011;5113;41.822;23.564;2023-10-19T08:21:20;4.50;;;3.83;;
10144;SDS011;5113;41.822;23.564;2023-10-19T08:24:28;8.37;;;4.77;;
10144;SDS011;5113;41.822;23.564;2023-10-19T08:27:37;5.00;;;4.27;;
10144;SDS011;5113;41.822;23.564;2023-10-19T08:30:44;4.60;;;4.20;;
10144;SDS011;5113;41.822;23.564;2023-10-19T08:34:02;4.87;;;4.33;;
10144;SDS011;5113;41.822;23.564;2023-10-19T08:37:08;5.30;;;4.73;;
10144;SDS011;5113;41.822;23.564;2023-10-19T08:40:15;6.50;;;4.63;;
10144;SDS011;5113;41.822;23.564;2023-10-19T08:43:24;6.57;;;4.57;;
10144;SDS011;5113;41.822;23.564;2023-10-19T08:46:33;6.73;;;4.73;;
10144;SDS011;5113;41.822;23.564;2023-10-19T08:49:40;13.70;;;7.30;;
10144;SDS011;5113;41.822;23.564;2023-10-19T08:52:47;20.90;;;9.47;;
10144;SDS011;5113;41.822;23.564;2023-10-19T08:55:54;4.77;;;4.10;;
10144;SDS011;5113;41.822;23.564;2023-10-19T08:59:03;6.27;;;5.13;;
10144;SDS011;5113;41.822;23.564;2023-10-19T09:02:10;7.17;;;5.10;;
10144;SDS011;5113;41.822;23.564;2023-10-19T09:05:17;13.03;;;6.23;;
10144;SDS011;5113;41.822;23.564;2023-10-19T09:08:27;52.60;;;21.40;;
10144;SDS011;5113;41.822;23.564;2023-10-19T09:11:42;14.07;;;7.17;;
10144;SDS011;5113;41.822;23.564;2023-10-19T09:14:50;6.27;;;5.63;;
10144;SDS011;5113;41.822;23.564;2023-10-19T09:17:57;12.53;;;6.37;;
10144;SDS011;5113;41.822;23.564;2023-10-19T09:21:04;8.97;;;6.73;;
10144;SDS011;5113;41.822;23.564;2023-10-19T09:24:15;11.60;;;6.57;;
10144;SDS011;5113;41.822;23.564;2023-10-19T09:27:23;9.53;;;6.37;;
10144;SDS011;5113;41.822;23.564;2023-10-19T09:30:31;9.70;;;6.30;;
10144;SDS011;5113;41.822;23.564;2023-10-19T09:33:40;6.33;;;5.73;;
10144;SDS011;5113;41.822;23.564;2023-10-19T09:36:48;8.57;;;5.53;;
10144;SDS011;5113;41.822;23.564;2023-10-19T09:39:55;8.37;;;4.30;;
10144;SDS011;5113;41.822;23.564;2023-10-19T09:43:04;6.50;;;5.83;;
10144;SDS011;5113;41.822;23.564;2023-10-19T09:46:18;8.63;;;6.17;;
10144;SDS011;5113;41.822;23.564;2023-10-19T09:49:27;7.97;;;6.27;;
10144;SDS011;5113;41.822;23.564;2023-10-19T09:52:34;6.10;;;5.10;;
10144;SDS011;5113;41.822;23.564;2023-10-19T09:55:41;5.37;;;4.60;;
10144;SDS011;5113;41.822;23.564;2023-10-19T09:58:51;6.83;;;5.73;;
10144;SDS011;5113;41.822;23.564;2023-10-19T10:02:06;10.37;;;5.30;;
10144;SDS011;5113;41.822;23.564;2023-10-19T10:08:53;7.13;;;5.23;;
10144;SDS011;5113;41.822;23.564;2023-10-19T10:12:15;11.67;;;5.17;;
10144;SDS011;5113;41.822;23.564;2023-10-19T10:15:37;8.17;;;6.57;;
10144;SDS011;5113;41.822;23.564;2023-10-19T10:18:48;7.57;;;6.17;;
10144;SDS011;5113;41.822;23.564;2023-10-19T10:22:07;5.13;;;4.63;;
10144;SDS011;5113;41.822;23.564;2023-10-19T10:25:25;8.53;;;6.27;;
10144;SDS011;5113;41.822;23.564;2023-10-19T10:28:32;8.73;;;5.77;;
10144;SDS011;5113;41.822;23.564;2023-10-19T10:31:43;5.43;;;4.93;;
10144;SDS011;5113;41.822;23.564;2023-10-19T10:34:53;5.33;;;4.83;;
10144;SDS011;5113;41.822;23.564;2023-10-19T10:38:00;6.77;;;5.70;;
10144;SDS011;5113;41.822;23.564;2023-10-19T10:41:07;5.97;;;4.90;;
10144;SDS011;5113;41.822;23.564;2023-10-19T10:44:17;6.10;;;5.50;;
10144;SDS011;5113;41.822;23.564;2023-10-19T10:47:24;6.33;;;4.93;;
10144;SDS011;5113;41.822;23.564;2023-10-19T10:50:33;6.33;;;5.70;;
10144;SDS011;5113;41.822;23.564;2023-10-19T10:53:40;8.70;;;5.37;;
10144;SDS011;5113;41.822;23.564;2023-10-19T10:56:47;12.73;;;10.20;;
10144;SDS011;5113;41.822;23.564;2023-10-19T11:00:06;8.50;;;7.40;;
10144;SDS011;5113;41.822;23.564;2023-10-19T11:03:20;5.77;;;5.00;;
10144;SDS011;5113;41.822;23.564;2023-10-19T11:06:30;6.87;;;4.73;;
10144;SDS011;5113;41.822;23.564;2023-10-19T11:09:43;5.37;;;4.87;;
10144;SDS011;5113;41.822;23.564;2023-10-19T11:12:50;4.53;;;4.13;;
10144;SDS011;5113;41.822;23.564;2023-10-19T11:15:56;4.43;;;4.13;;
10144;SDS011;5113;41.822;23.564;2023-10-19T11:19:03;5.20;;;4.70;;
10144;SDS011;5113;41.822;23.564;2023-10-19T11:22:11;6.30;;;4.97;;
10144;SDS011;5113;41.822;23.564;2023-10-19T11:25:18;4.77;;;4.37;;
10144;SDS011;5113;41.822;23.564;2023-10-19T11:28:25;5.13;;;4.37;;
10144;SDS011;5113;41.822;23.564;2023-10-19T11:31:33;5.00;;;4.20;;
10144;SDS011;5113;41.822;23.564;2023-10-19T11:34:44;4.57;;;4.10;;
10144;SDS011;5113;41.822;23.564;2023-10-19T11:37:54;6.47;;;4.10;;
10144;SDS011;5113;41.822;23.564;2023-10-19T11:41:02;5.43;;;4.93;;
10144;SDS011;5113;41.822;23.564;2023-10-19T11:44:09;4.30;;;3.90;;
10144;SDS011;5113;41.822;23.564;2023-10-19T11:47:16;3.67;;;3.37;;
10144;SDS011;5113;41.822;23.564;2023-10-19T11:50:22;3.53;;;3.30;;
10144;SDS011;5113;41.822;23.564;2023-10-19T11:53:34;4.20;;;3.80;;
10144;SDS011;5113;41.822;23.564;2023-10-19T11:56:41;4.10;;;3.80;;
10144;SDS011;5113;41.822;23.564;2023-10-19T11:59:48;4.10;;;3.73;;
10144;SDS011;5113;41.822;23.564;2023-10-19T12:03:01;3.20;;;3.00;;
10144;SDS011;5113;41.822;23.564;2023-10-19T12:06:07;3.50;;;3.20;;
10144;SDS011;5113;41.822;23.564;2023-10-19T12:09:16;3.80;;;3.50;;
10144;SDS011;5113;41.822;23.564;2023-10-19T12:12:23;3.70;;;3.40;;
10144;SDS011;5113;41.822;23.564;2023-10-19T12:15:30;3.23;;;3.03;;
10144;SDS011;5113;41.822;23.564;2023-10-19T12:18:37;3.10;;;2.90;;
10144;SDS011;5113;41.822;23.564;2023-10-19T12:21:43;3.87;;;3.43;;
10144;SDS011;5113;41.822;23.564;2023-10-19T12:24:51;3.30;;;3.00;;
10144;SDS011;5113;41.822;23.564;2023-10-19T12:27:59;3.23;;;2.77;;
10144;SDS011;5113;41.822;23.564;2023-10-19T12:31:08;3.87;;;3.57;;
10144;SDS011;5113;41.822;23.564;2023-10-19T12:34:15;3.27;;;3.07;;
10144;SDS011;5113;41.822;23.564;2023-10-19T12:37:22;4.90;;;4.40;;
10144;SDS011;5113;41.822;23.564;2023-10-19T12:40:31;4.50;;;4.10;;
10144;SDS011;5113;41.822;23.564;2023-10-19T12:43:40;5.10;;;3.70;;
10144;SDS011;5113;41.822;23.564;2023-10-19T12:46:46;7.33;;;5.47;;
10144;SDS011;5113;41.822;23.564;2023-10-19T12:49:53;4.37;;;3.93;;
10144;SDS011;5113;41.822;23.564;2023-10-19T12:53:02;3.47;;;3.17;;
10144;SDS011;5113;41.822;23.564;2023-10-19T12:56:10;4.50;;;4.10;;
10144;SDS011;5113;41.822;23.564;2023-10-19T12:59:16;3.80;;;3.50;;
10144;SDS011;5113;41.822;23.564;2023-10-19T13:02:24;3.33;;;3.03;;
10144;SDS011;5113;41.822;23.564;2023-10-19T13:05:35;3.53;;;3.27;;
10144;SDS011;5113;41.822;23.564;2023-10-19T13:08:44;4.03;;;3.13;;
10144;SDS011;5113;41.822;23.564;2023-10-19T13:11:53;3.20;;;2.90;;
10144;SDS011;5113;41.822;23.564;2023-10-19T13:14:59;4.80;;;4.00;;
10144;SDS011;5113;41.822;23.564;2023-10-19T13:18:07;3.90;;;3.50;;
10144;SDS011;5113;41.822;23.564;2023-10-19T13:21:15;7.93;;;3.63;;
10144;SDS011;5113;41.822;23.564;2023-10-19T13:24:27;4.43;;;4.03;;
10144;SDS011;5113;41.822;23.564;2023-10-19T13:27:38;3.50;;;3.20;;
10144;SDS011;5113;41.822;23.564;2023-10-19T13:30:47;4.17;;;3.73;;
10144;SDS011;5113;41.822;23.564;2023-10-19T13:33:54;2.87;;;2.67;;
10144;SDS011;5113;41.822;23.564;2023-10-19T13:37:01;3.10;;;2.90;;
10144;SDS011;5113;41.822;23.564;2023-10-19T13:40:08;5.57;;;5.07;;
10144;SDS011;5113;41.822;23.564;2023-10-19T13:43:18;3.93;;;3.63;;
10144;SDS011;5113;41.822;23.564;2023-10-19T13:46:25;4.83;;;4.00;;
10144;SDS011;5113;41.822;23.564;2023-10-19T13:49:32;5.00;;;4.50;;
10144;SDS011;5113;41.822;23.564;2023-10-19T13:52:40;5.83;;;5.20;;
10144;SDS011;5113;41.822;23.564;2023-10-19T13:55:46;8.10;;;5.53;;
10144;SDS011;5113;41.822;23.564;2023-10-19T13:58:54;9.63;;;7.73;;
10144;SDS011;5113;41.822;23.564;2023-10-19T14:02:01;42.80;;;21.37;;
10144;SDS011;5113;41.822;23.564;2023-10-19T14:05:08;28.30;;;16.60;;
10144;SDS011;5113;41.822;23.564;2023-10-19T14:08:16;23.63;;;14.20;;
10144;SDS011;5113;41.822;23.564;2023-10-19T14:11:25;9.77;;;8.50;;
10144;SDS011;5113;41.822;23.564;2023-10-19T14:14:33;5.53;;;4.70;;
10144;SDS011;5113;41.822;23.564;2023-10-19T14:17:39;3.87;;;3.57;;
10144;SDS011;5113;41.822;23.564;2023-10-19T14:20:46;4.07;;;3.73;;
10144;SDS011;5113;41.822;23.564;2023-10-19T14:23:52;4.77;;;4.27;;
10144;SDS011;5113;41.822;23.564;2023-10-19T14:26:59;5.33;;;4.70;;
10144;SDS011;5113;41.822;23.564;2023-10-19T14:30:09;3.90;;;3.60;;
10144;SDS011;5113;41.822;23.564;2023-10-19T14:33:17;5.83;;;5.23;;
10144;SDS011;5113;41.822;23.564;2023-10-19T14:36:23;6.67;;;4.67;;
10144;SDS011;5113;41.822;23.564;2023-10-19T14:39:30;5.77;;;5.13;;
10144;SDS011;5113;41.822;23.564;2023-10-19T14:42:37;8.63;;;5.57;;
10144;SDS011;5113;41.822;23.564;2023-10-19T14:45:46;15.47;;;8.17;;
10144;SDS011;5113;41.822;23.564;2023-10-19T14:48:52;7.20;;;6.50;;
10144;SDS011;5113;41.822;23.564;2023-10-19T14:51:59;5.70;;;5.13;;
10144;SDS011;5113;41.822;23.564;2023-10-19T14:55:08;11.30;;;7.63;;
10144;SDS011;5113;41.822;23.564;2023-10-19T14:58:15;9.63;;;6.20;;
10144;SDS011;5113;41.822;23.564;2023-10-19T15:01:25;8.87;;;7.47;;
10144;SDS011;5113;41.822;23.564;2023-10-19T15:04:31;11.70;;;8.10;;
10144;SDS011;5113;41.822;23.564;2023-10-19T15:07:37;15.57;;;10.00;;
10144;SDS011;5113;41.822;23.564;2023-10-19T15:10:44;11.60;;;7.47;;
10144;SDS011;5113;41.822;23.564;2023-10-19T15:13:51;12.57;;;7.87;;
10144;SDS011;5113;41.822;23.564;2023-10-19T15:16:58;7.20;;;5.80;;
10144;SDS011;5113;41.822;23.564;2023-10-19T15:20:05;13.90;;;8.03;;
10144;SDS011;5113;41.822;23.564;2023-10-19T15:23:14;8.83;;;6.37;;
10144;SDS011;5113;41.822;23.564;2023-10-19T15:26:20;12.13;;;7.87;;
10144;SDS011;5113;41.822;23.564;2023-10-19T15:29:27;10.73;;;8.10;;
10144;SDS011;5113;41.822;23.564;2023-10-19T15:32:35;11.23;;;8.00;;
10144;SDS011;5113;41.822;23.564;2023-10-19T15:35:41;9.80;;;7.97;;
10144;SDS011;5113;41.822;23.564;2023-10-19T15:38:48;9.67;;;6.30;;
10144;SDS011;5113;41.822;23.564;2023-10-19T15:41:55;13.20;;;8.37;;
10144;SDS011;5113;41.822;23.564;2023-10-19T15:45:02;9.40;;;7.30;;
10144;SDS011;5113;41.822;23.564;2023-10-19T15:48:11;7.27;;;6.03;;
10144;SDS011;5113;41.822;23.564;2023-10-19T15:51:17;17.60;;;11.47;;
10144;SDS011;5113;41.822;23.564;2023-10-19T15:54:24;8.77;;;7.23;;
10144;SDS011;5113;41.822;23.564;2023-10-19T15:57:32;8.80;;;6.57;;
10144;SDS011;5113;41.822;23.564;2023-10-19T16:00:38;8.70;;;6.73;;
10144;SDS011;5113;41.822;23.564;2023-10-19T16:03:46;16.23;;;10.70;;
10144;SDS011;5113;41.822;23.564;2023-10-19T16:06:53;22.20;;;11.50;;
10144;SDS011;5113;41.822;23.564;2023-10-19T16:10:00;18.27;;;10.53;;
10144;SDS011;5113;41.822;23.564;2023-10-19T16:13:06;12.07;;;9.93;;
10144;SDS011;5113;41.822;23.564;2023-10-19T16:16:13;8.37;;;6.50;;
10144;SDS011;5113;41.822;23.564;2023-10-19T16:19:21;7.17;;;5.33;;
10144;SDS011;5113;41.822;23.564;2023-10-19T16:22:28;24.97;;;21.70;;
10144;SDS011;5113;41.822;23.564;2023-10-19T16:25:35;14.33;;;11.47;;
10144;SDS011;5113;41.822;23.564;2023-10-19T16:28:41;7.97;;;6.97;;
10144;SDS011;5113;41.822;23.564;2023-10-19T16:31:48;18.70;;;12.43;;
10144;SDS011;5113;41.822;23.564;2023-10-19T16:34:56;12.67;;;8.57;;
10144;SDS011;5113;41.822;23.564;2023-10-19T16:38:03;13.53;;;9.77;;
10144;SDS011;5113;41.822;23.564;2023-10-19T16:41:09;13.53;;;11.13;;
10144;SDS011;5113;41.822;23.564;2023-10-19T16:44:17;19.23;;;13.50;;
10144;SDS011;5113;41.822;23.564;2023-10-19T16:47:24;30.13;;;22.13;;
10144;SDS011;5113;41.822;23.564;2023-10-19T16:50:32;15.03;;;12.33;;
10144;SDS011;5113;41.822;23.564;2023-10-19T16:53:38;14.77;;;11.33;;
10144;SDS011;5113;41.822;23.564;2023-10-19T16:56:44;15.77;;;11.33;;
10144;SDS011;5113;41.822;23.564;2023-10-19T16:59:51;22.70;;;15.33;;
10144;SDS011;5113;41.822;23.564;2023-10-19T17:02:59;12.20;;;9.77;;
10144;SDS011;5113;41.822;23.564;2023-10-19T17:06:07;17.23;;;13.27;;
10144;SDS011;5113;41.822;23.564;2023-10-19T17:09:15;20.37;;;15.97;;
10144;SDS011;5113;41.822;23.564;2023-10-19T17:12:24;39.13;;;35.50;;
10144;SDS011;5113;41.822;23.564;2023-10-19T17:15:32;23.77;;;18.93;;
10144;SDS011;5113;41.822;23.564;2023-10-19T17:18:39;21.43;;;15.33;;
10144;SDS011;5113;41.822;23.564;2023-10-19T17:21:47;16.57;;;11.27;;
10144;SDS011;5113;41.822;23.564;2023-10-19T17:24:53;11.37;;;7.10;;
10144;SDS011;5113;41.822;23.564;2023-10-19T17:28:00;16.33;;;8.03;;
10144;SDS011;5113;41.822;23.564;2023-10-19T17:31:06;33.27;;;21.13;;
10144;SDS011;5113;41.822;23.564;2023-10-19T17:34:13;56.57;;;28.83;;
10144;SDS011;5113;41.822;23.564;2023-10-19T17:37:21;65.40;;;33.03;;
10144;SDS011;5113;41.822;23.564;2023-10-19T17:40:28;61.53;;;37.60;;
10144;SDS011;5113;41.822;23.564;2023-10-19T17:43:34;49.87;;;33.33;;
10144;SDS011;5113;41.822;23.564;2023-10-19T17:46:41;45.23;;;29.33;;
10144;SDS011;5113;41.822;23.564;2023-10-19T17:49:49;57.00;;;28.37;;
10144;SDS011;5113;41.822;23.564;2023-10-19T17:52:59;46.00;;;28.00;;
10144;SDS011;5113;41.822;23.564;2023-10-19T17:56:08;59.97;;;35.27;;
10144;SDS011;5113;41.822;23.564;2023-10-19T17:59:14;57.13;;;31.30;;
10144;SDS011;5113;41.822;23.564;2023-10-19T18:02:21;74.07;;;37.57;;
10144;SDS011;5113;41.822;23.564;2023-10-19T18:05:29;75.83;;;40.40;;
10144;SDS011;5113;41.822;23.564;2023-10-19T18:08:37;68.67;;;37.03;;
10144;SDS011;5113;41.822;23.564;2023-10-19T18:11:43;63.03;;;34.10;;
10144;SDS011;5113;41.822;23.564;2023-10-19T18:14:51;60.50;;;33.00;;
10144;SDS011;5113;41.822;23.564;2023-10-19T18:17:59;52.33;;;31.10;;
10144;SDS011;5113;41.822;23.564;2023-10-19T18:21:09;28.53;;;19.43;;
10144;SDS011;5113;41.822;23.564;2023-10-19T18:24:17;34.93;;;27.43;;
10144;SDS011;5113;41.822;23.564;2023-10-19T18:27:24;133.07;;;75.23;;
10144;SDS011;5113;41.822;23.564;2023-10-19T18:30:30;72.23;;;45.00;;
10144;SDS011;5113;41.822;23.564;2023-10-19T18:33:36;101.43;;;53.47;;
10144;SDS011;5113;41.822;23.564;2023-10-19T18:36:45;89.30;;;47.70;;
10144;SDS011;5113;41.822;23.564;2023-10-19T18:39:53;85.77;;;45.53;;
10144;SDS011;5113;41.822;23.564;2023-10-19T18:42:59;71.17;;;41.03;;
10144;SDS011;5113;41.822;23.564;2023-10-19T18:46:08;56.83;;;30.03;;